Time;durP1;ratioP1;P1;durP2;ratioP2;P2;SDS_P1;SDS_P2;PMS_P1;PMS_P2;Temp;Humidity;BMP_temperature;BMP_pressure;BME280_temperature;BME280_humidity;BME280_pressure;Samples;Min_cycle;Max_cycle;Signal;HPM_P1;HPM_P2
2021/05/19 00:01:57;;;;;;;6.50;5.70;;;13.30;99.90;;;;;;6171955;23;20180;-82
2021/05/19 00:04:23;;;;;;;8.40;5.60;;;13.30;99.90;;;;;;6179516;23;20181;-82
2021/05/19 00:06:48;;;;;;;7.23;5.13;;;13.30;99.90;;;;;;6211354;23;20208;-83
2021/05/19 00:09:15;;;;;;;6.97;5.17;;;13.20;99.90;;;;;;6209001;23;20614;-83
2021/05/19 00:11:45;;;;;;;9.15;5.85;;;13.30;99.90;;;;;;6209990;23;20193;-84
2021/05/19 00:14:12;;;;;;;6.85;5.40;;;13.20;99.90;;;;;;6205116;23;20205;-84
2021/05/19 00:16:38;;;;;;;8.70;5.10;;;13.10;99.90;;;;;;6174556;23;20204;-83
2021/05/19 00:19:07;;;;;;;9.90;5.65;;;13.10;99.90;;;;;;6203968;23;20141;-81
2021/05/19 00:21:33;;;;;;;8.63;6.03;;;13.10;99.90;;;;;;6201502;23;20165;-82
2021/05/19 00:23:58;;;;;;;12.40;6.60;;;13.10;99.90;;;;;;6193175;23;20201;-82
2021/05/19 00:26:25;;;;;;;6.93;4.77;;;13.20;99.90;;;;;;6173157;23;20157;-82
2021/05/19 00:28:54;;;;;;;6.60;5.22;;;13.20;99.90;;;;;;6163784;23;20161;-82
2021/05/19 00:31:22;;;;;;;9.50;6.13;;;13.20;99.90;;;;;;6184426;23;20181;-82
2021/05/19 00:33:48;;;;;;;9.48;6.20;;;13.10;99.90;;;;;;6184202;23;20154;-84
2021/05/19 00:36:16;;;;;;;11.17;6.90;;;13.00;99.90;;;;;;6185893;23;20248;-84
2021/05/19 00:38:44;;;;;;;11.30;6.50;;;13.00;99.90;;;;;;6185775;23;20177;-82
2021/05/19 00:41:12;;;;;;;12.20;5.68;;;13.10;99.90;;;;;;6185585;23;20197;-84
2021/05/19 00:43:38;;;;;;;9.00;5.68;;;13.10;99.90;;;;;;6187387;23;20152;-82
2021/05/19 00:46:05;;;;;;;8.93;5.93;;;13.00;99.90;;;;;;6185532;23;20184;-83
2021/05/19 00:48:30;;;;;;;9.75;6.55;;;13.00;99.90;;;;;;6160624;23;20381;-81
2021/05/19 00:50:56;;;;;;;15.20;6.50;;;13.00;99.90;;;;;;6186173;23;20204;-83
2021/05/19 00:53:21;;;;;;;9.23;5.77;;;12.90;99.90;;;;;;6160331;23;20626;-81
2021/05/19 00:55:47;;;;;;;8.50;5.40;;;13.00;99.90;;;;;;6187360;23;20598;-82
2021/05/19 00:58:13;;;;;;;8.97;5.63;;;13.00;99.90;;;;;;6190625;23;20145;-86
2021/05/19 01:00:39;;;;;;;8.23;5.30;;;13.00;99.90;;;;;;6199428;23;20379;-81
2021/05/19 01:03:05;;;;;;;9.97;6.10;;;13.00;99.90;;;;;;6160901;23;20790;-81
2021/05/19 01:10:49;;;;;;;6.30;5.07;;;13.00;99.90;;;;;;6187510;23;20188;-80
2021/05/19 01:13:15;;;;;;;8.55;4.80;;;13.00;99.90;;;;;;6186395;23;20161;-83
2021/05/19 01:15:41;;;;;;;7.15;4.90;;;13.00;99.90;;;;;;6187091;23;20142;-81
2021/05/19 01:18:07;;;;;;;10.60;5.97;;;13.00;99.90;;;;;;6160692;23;20172;-81
2021/05/19 01:20:34;;;;;;;7.83;4.90;;;13.00;99.90;;;;;;6187146;23;20146;-81
2021/05/19 01:23:01;;;;;;;11.40;5.22;;;13.00;99.90;;;;;;6185682;23;20388;-80
2021/05/19 01:25:27;;;;;;;8.65;5.63;;;13.10;99.90;;;;;;6161573;23;20157;-80
2021/05/19 01:27:59;;;;;;;6.28;4.80;;;13.00;99.90;;;;;;6187105;23;20224;-83
2021/05/19 01:30:26;;;;;;;10.73;6.32;;;13.10;99.90;;;;;;6186502;23;20152;-83
2021/05/19 01:32:52;;;;;;;9.93;5.25;;;13.10;99.90;;;;;;6184815;23;20160;-81
2021/05/19 01:35:18;;;;;;;7.13;5.55;;;13.00;99.90;;;;;;6191193;23;20630;-81
2021/05/19 01:37:45;;;;;;;6.67;5.10;;;12.90;99.90;;;;;;6165063;23;20264;-82
2021/05/19 01:40:13;;;;;;;5.03;4.07;;;13.00;99.90;;;;;;6188050;23;20784;-81
2021/05/19 01:42:39;;;;;;;5.82;3.92;;;13.10;99.90;;;;;;6187108;23;20504;-82
2021/05/19 01:45:09;;;;;;;6.43;4.00;;;13.10;99.90;;;;;;6161045;23;20512;-84
2021/05/19 01:47:47;;;;;;;6.97;4.15;;;13.20;99.90;;;;;;6187313;23;20149;-82
2021/05/19 01:50:22;;;;;;;6.32;3.80;;;13.20;99.90;;;;;;6186236;23;20236;-81
2021/05/19 01:52:50;;;;;;;5.97;4.32;;;13.10;99.90;;;;;;6187009;23;20610;-82
2021/05/19 01:55:16;;;;;;;6.95;4.20;;;13.20;99.90;;;;;;6161175;23;20499;-82
2021/05/19 01:57:47;;;;;;;6.20;4.40;;;13.20;99.90;;;;;;6161045;23;20205;-82
2021/05/19 02:00:14;;;;;;;6.80;4.13;;;13.00;99.90;;;;;;6160924;23;20150;-82
2021/05/19 02:02:41;;;;;;;8.95;4.90;;;13.00;99.90;;;;;;6187366;23;20178;-83
2021/05/19 02:05:11;;;;;;;6.80;4.32;;;12.80;99.90;;;;;;6187262;23;20175;-81
2021/05/19 02:07:38;;;;;;;3.95;3.35;;;13.00;99.90;;;;;;6188017;23;20587;-82
2021/05/19 02:10:06;;;;;;;12.35;4.30;;;13.10;99.90;;;;;;6187795;23;20154;-86
2021/05/19 02:12:32;;;;;;;7.15;4.03;;;13.10;99.90;;;;;;6159843;23;20612;-80
2021/05/19 02:14:57;;;;;;;5.10;4.10;;;13.00;99.90;;;;;;6185469;23;20149;-82
2021/05/19 02:17:28;;;;;;;6.00;4.60;;;13.00;99.90;;;;;;6161409;23;20189;-82
2021/05/19 02:19:55;;;;;;;6.35;4.80;;;13.10;99.90;;;;;;6187245;23;20606;-84
2021/05/19 02:22:22;;;;;;;7.82;4.97;;;13.10;99.90;;;;;;6186952;23;20246;-83
2021/05/19 02:24:48;;;;;;;6.60;4.10;;;13.20;99.90;;;;;;6188129;23;20146;-83
2021/05/19 02:27:13;;;;;;;7.20;4.13;;;13.10;99.90;;;;;;6164618;23;20497;-83
2021/05/19 02:29:39;;;;;;;5.83;3.77;;;13.10;99.90;;;;;;6165522;23;20380;-83
2021/05/19 02:32:05;;;;;;;4.60;3.60;;;13.10;99.90;;;;;;6163314;23;20236;-82
2021/05/19 02:34:31;;;;;;;6.80;3.50;;;13.10;99.90;;;;;;6162868;23;20175;-83
2021/05/19 02:36:56;;;;;;;4.37;3.37;;;13.00;99.90;;;;;;6162938;23;20221;-85
2021/05/19 02:39:22;;;;;;;8.20;4.33;;;13.00;99.90;;;;;;6138646;23;20158;-84
2021/05/19 02:41:47;;;;;;;5.20;3.90;;;13.00;99.90;;;;;;6161892;23;20173;-83
2021/05/19 02:44:14;;;;;;;8.27;4.33;;;13.00;99.90;;;;;;6163021;23;20563;-82
2021/05/19 02:46:40;;;;;;;6.97;4.18;;;13.10;99.90;;;;;;6162903;23;20204;-82
2021/05/19 02:49:06;;;;;;;4.07;3.53;;;13.10;99.90;;;;;;6187789;23;20161;-82
2021/05/19 02:51:33;;;;;;;6.90;4.60;;;13.00;99.90;;;;;;6189041;23;20176;-82
2021/05/19 02:53:59;;;;;;;5.60;3.85;;;13.00;99.90;;;;;;6138010;23;20249;-82
2021/05/19 02:56:25;;;;;;;4.43;3.55;;;12.90;99.90;;;;;;6162471;23;20255;-83
2021/05/19 02:58:50;;;;;;;5.27;4.27;;;12.80;99.90;;;;;;6189223;23;20152;-82
2021/05/19 03:01:16;;;;;;;5.70;3.97;;;12.80;99.90;;;;;;6189453;23;20165;-84
2021/05/19 03:03:42;;;;;;;4.82;3.80;;;12.80;99.90;;;;;;6163129;23;20157;-83
2021/05/19 03:06:08;;;;;;;5.87;4.20;;;12.70;99.90;;;;;;6138356;23;20201;-83
2021/05/19 03:08:34;;;;;;;5.40;3.60;;;12.80;99.90;;;;;;6188537;23;20603;-83
2021/05/19 03:10:59;;;;;;;6.70;4.70;;;12.90;99.90;;;;;;6163831;23;20177;-83
2021/05/19 03:13:25;;;;;;;6.93;4.43;;;13.00;99.90;;;;;;6163493;23;20397;-84
2021/05/19 03:15:51;;;;;;;6.27;3.93;;;13.00;99.90;;;;;;6190695;23;20169;-84
2021/05/19 03:18:16;;;;;;;7.55;4.40;;;13.10;99.90;;;;;;6190147;23;20236;-83
2021/05/19 03:20:42;;;;;;;7.23;4.37;;;13.00;99.90;;;;;;6190621;23;20142;-82
2021/05/19 03:23:08;;;;;;;7.03;4.77;;;13.10;99.90;;;;;;6162900;23;20156;-83
2021/05/19 03:25:33;;;;;;;8.50;4.90;;;13.10;99.90;;;;;;6187505;23;20487;-82
2021/05/19 03:27:59;;;;;;;5.77;4.73;;;13.10;99.90;;;;;;6189852;23;20146;-84
2021/05/19 03:30:25;;;;;;;5.97;4.47;;;13.10;99.90;;;;;;6189587;23;20203;-83
2021/05/19 03:32:51;;;;;;;6.57;4.50;;;13.20;99.90;;;;;;6162604;23;20153;-82
2021/05/19 03:35:17;;;;;;;7.65;4.70;;;13.10;99.90;;;;;;6189870;23;20223;-82
2021/05/19 03:37:44;;;;;;;7.27;4.50;;;13.20;99.90;;;;;;6189579;23;20165;-83
2021/05/19 03:40:13;;;;;;;8.10;4.32;;;13.20;99.90;;;;;;6187508;23;20456;-83
2021/05/19 03:42:39;;;;;;;8.50;5.50;;;13.20;99.90;;;;;;6162644;23;20169;-82
2021/05/19 03:45:10;;;;;;;7.28;5.47;;;13.20;99.90;;;;;;6161994;23;20187;-81
2021/05/19 03:47:36;;;;;;;6.22;4.57;;;13.30;99.90;;;;;;6162414;23;20228;-82
2021/05/19 03:50:03;;;;;;;11.00;5.23;;;13.30;99.90;;;;;;6189409;23;20430;-83
2021/05/19 03:52:31;;;;;;;6.93;4.32;;;13.40;99.90;;;;;;6188776;23;20220;-81
2021/05/19 03:54:56;;;;;;;4.72;4.18;;;13.50;99.90;;;;;;6189604;23;20173;-83
2021/05/19 03:57:22;;;;;;;6.47;4.57;;;13.30;99.90;;;;;;6187770;23;20347;-83
2021/05/19 03:59:47;;;;;;;7.60;4.67;;;13.40;99.90;;;;;;6162941;23;20216;-82
2021/05/19 04:02:13;;;;;;;7.83;4.20;;;13.30;99.90;;;;;;6187615;23;20188;-82
2021/05/19 04:04:39;;;;;;;8.17;5.47;;;13.30;99.90;;;;;;6189908;23;20221;-82
2021/05/19 04:07:04;;;;;;;6.60;5.10;;;13.20;99.90;;;;;;6188695;23;20783;-83
2021/05/19 04:09:30;;;;;;;9.40;5.00;;;13.20;99.90;;;;;;6189493;23;20161;-82
2021/05/19 04:11:55;;;;;;;8.50;5.20;;;13.20;99.90;;;;;;6162129;23;20262;-82
2021/05/19 04:14:21;;;;;;;7.40;5.50;;;13.20;99.90;;;;;;6162503;23;20591;-83
2021/05/19 04:16:49;;;;;;;7.93;5.60;;;13.10;99.90;;;;;;6190182;23;20192;-82
2021/05/19 04:19:15;;;;;;;9.70;6.15;;;13.20;99.90;;;;;;6191332;23;20248;-82
2021/05/19 04:21:41;;;;;;;6.70;4.80;;;13.10;99.90;;;;;;6164940;23;20186;-84
2021/05/19 04:24:07;;;;;;;7.30;5.60;;;13.40;99.90;;;;;;6165718;23;20169;-84
2021/05/19 04:26:32;;;;;;;7.03;4.95;;;13.40;99.90;;;;;;6192012;23;20150;-85
2021/05/19 04:28:58;;;;;;;6.70;5.47;;;13.50;99.90;;;;;;6192301;23;20149;-84
2021/05/19 04:31:24;;;;;;;8.63;5.23;;;13.50;99.90;;;;;;6190202;23;20173;-84
2021/05/19 04:33:50;;;;;;;6.38;4.85;;;13.30;99.90;;;;;;6192521;23;20158;-83
2021/05/19 04:36:16;;;;;;;10.23;5.37;;;13.20;99.90;;;;;;6190548;23;20681;-82
2021/05/19 04:38:42;;;;;;;8.00;4.90;;;13.30;99.90;;;;;;6165276;23;20196;-83
2021/05/19 04:41:08;;;;;;;8.68;6.20;;;13.30;99.90;;;;;;6190827;23;20267;-82
2021/05/19 04:43:34;;;;;;;9.50;4.90;;;13.40;99.90;;;;;;6191553;23;20145;-84
2021/05/19 04:46:00;;;;;;;14.73;6.20;;;13.40;99.90;;;;;;6165099;23;20161;-84
2021/05/19 04:48:27;;;;;;;9.30;5.40;;;13.30;99.90;;;;;;6191195;23;20187;-86
2021/05/19 04:50:53;;;;;;;9.88;6.93;;;13.20;99.90;;;;;;6164280;23;20186;-83
2021/05/19 04:53:18;;;;;;;7.97;5.93;;;13.10;99.90;;;;;;6164225;23;20153;-84
2021/05/19 04:55:44;;;;;;;11.50;5.80;;;13.30;99.90;;;;;;6188796;23;20150;-84
2021/05/19 04:58:09;;;;;;;9.20;6.13;;;13.10;99.90;;;;;;6163995;23;20154;-82
2021/05/19 05:00:36;;;;;;;13.27;6.20;;;13.10;99.90;;;;;;6189809;23;20142;-82
2021/05/19 05:03:03;;;;;;;9.38;6.00;;;13.10;99.90;;;;;;6188357;23;20237;-84
2021/05/19 05:05:28;;;;;;;9.43;6.07;;;13.20;99.90;;;;;;6190237;23;20149;-82
2021/05/19 05:07:54;;;;;;;8.97;5.53;;;13.00;99.90;;;;;;6168378;23;20224;-83
2021/05/19 05:10:19;;;;;;;10.37;6.40;;;13.00;99.90;;;;;;6170827;23;20161;-82
2021/05/19 05:12:45;;;;;;;7.97;5.27;;;13.10;99.90;;;;;;6167695;23;20232;-81
2021/05/19 05:15:14;;;;;;;9.37;5.70;;;12.90;99.90;;;;;;6167161;23;20149;-82
2021/05/19 05:17:40;;;;;;;8.05;5.70;;;12.80;99.90;;;;;;6166909;23;20435;-81
2021/05/19 05:20:08;;;;;;;9.32;5.28;;;13.10;99.90;;;;;;6192311;23;20141;-82
2021/05/19 05:22:34;;;;;;;7.20;5.22;;;13.20;99.90;;;;;;6192566;23;20244;-81
2021/05/19 05:25:00;;;;;;;8.17;5.47;;;13.30;99.90;;;;;;6193391;23;20150;-81
2021/05/19 05:27:25;;;;;;;9.47;5.80;;;13.60;99.90;;;;;;6165770;23;20392;-81
2021/05/19 05:29:51;;;;;;;9.00;5.90;;;13.90;99.90;;;;;;6165986;23;20157;-82
2021/05/19 05:32:17;;;;;;;9.27;6.77;;;14.20;99.90;;;;;;6192093;23;20180;-82
2021/05/19 05:34:42;;;;;;;9.30;5.93;;;14.40;99.90;;;;;;6166937;23;20177;-82
2021/05/19 05:37:08;;;;;;;9.27;6.30;;;14.80;99.90;;;;;;6191551;23;20169;-82
2021/05/19 05:39:34;;;;;;;6.27;4.40;;;14.90;99.90;;;;;;6190606;23;20381;-82
2021/05/19 05:41:59;;;;;;;7.60;6.20;;;15.20;99.90;;;;;;6164349;23;20166;-81
2021/05/19 05:44:25;;;;;;;9.70;5.57;;;15.50;99.90;;;;;;6191097;23;20155;-82
2021/05/19 05:46:50;;;;;;;8.50;5.80;;;15.60;99.90;;;;;;6166413;23;20209;-81
2021/05/19 05:49:16;;;;;;;7.17;5.77;;;15.50;99.90;;;;;;6180818;23;20164;-81
2021/05/19 05:51:41;;;;;;;10.30;5.93;;;15.50;99.90;;;;;;6144001;23;20191;-79
2021/05/19 05:54:07;;;;;;;8.97;5.50;;;15.30;99.90;;;;;;6192581;23;20151;-81
2021/05/19 05:56:33;;;;;;;9.20;6.07;;;15.30;99.90;;;;;;6166126;23;20190;-81
2021/05/19 05:58:59;;;;;;;8.93;5.97;;;15.50;99.90;;;;;;6164255;23;20608;-81
2021/05/19 06:01:25;;;;;;;8.00;5.67;;;15.50;99.90;;;;;;6190524;23;20899;-80
2021/05/19 06:03:50;;;;;;;8.10;5.53;;;15.80;99.90;;;;;;6162878;23;20258;-81
2021/05/19 06:06:16;;;;;;;6.43;5.37;;;15.70;99.90;;;;;;6167420;23;20384;-81
2021/05/19 06:08:45;;;;;;;8.40;6.10;;;15.90;99.90;;;;;;6189382;23;20168;-82
2021/05/19 06:11:10;;;;;;;6.73;4.73;;;16.20;99.90;;;;;;6187218;23;20177;-81
2021/05/19 06:13:36;;;;;;;5.70;5.10;;;16.70;99.90;;;;;;6166599;23;20389;-81
2021/05/19 06:16:02;;;;;;;7.03;5.03;;;16.70;99.90;;;;;;6195270;23;20173;-82
2021/05/19 06:18:27;;;;;;;5.87;5.03;;;16.90;99.90;;;;;;6165525;23;20606;-80
2021/05/19 06:20:53;;;;;;;7.43;5.20;;;17.00;99.90;;;;;;6190721;23;20590;-79
2021/05/19 06:23:19;;;;;;;7.27;4.57;;;16.70;99.90;;;;;;6191672;23;20160;-81
2021/05/19 06:25:45;;;;;;;5.73;4.60;;;16.90;99.90;;;;;;6166401;23;20385;-81
2021/05/19 06:28:10;;;;;;;6.07;4.00;;;16.70;99.90;;;;;;6189604;23;20395;-81
2021/05/19 06:30:36;;;;;;;5.30;4.00;;;16.70;99.90;;;;;;6189088;23;20164;-81
2021/05/19 06:33:02;;;;;;;5.97;4.30;;;16.90;99.90;;;;;;6189093;23;20600;-82
2021/05/19 06:35:28;;;;;;;5.47;3.80;;;16.90;99.90;;;;;;6189658;23;20150;-81
2021/05/19 06:37:54;;;;;;;5.10;4.37;;;17.10;99.90;;;;;;6162857;23;20247;-81
2021/05/19 06:40:20;;;;;;;8.40;4.60;;;16.90;99.90;;;;;;6188151;23;20496;-82
2021/05/19 06:42:46;;;;;;;6.43;4.90;;;17.20;99.90;;;;;;6190934;23;20396;-81
2021/05/19 06:45:12;;;;;;;5.20;4.10;;;17.10;99.90;;;;;;6191086;23;20222;-82
2021/05/19 06:47:37;;;;;;;5.17;3.40;;;17.10;99.90;;;;;;6166549;23;20388;-81
2021/05/19 06:50:07;;;;;;;4.17;3.37;;;17.20;99.90;;;;;;6191870;23;20889;-82
2021/05/19 06:52:33;;;;;;;4.30;3.73;;;17.40;99.90;;;;;;6162666;23;20174;-81
2021/05/19 06:55:01;;;;;;;4.20;2.67;;;17.40;99.90;;;;;;6189727;23;20379;-81
2021/05/19 06:57:26;;;;;;;4.87;3.23;;;16.60;99.90;;;;;;6190546;23;20191;-81
2021/05/19 06:59:52;;;;;;;4.70;3.13;;;16.50;99.90;;;;;;6188737;23;20404;-82
2021/05/19 07:02:17;;;;;;;3.63;2.93;;;16.70;99.90;;;;;;6190044;23;20169;-81
2021/05/19 07:04:43;;;;;;;5.60;3.20;;;16.80;99.90;;;;;;6163145;23;20162;-83
2021/05/19 07:07:08;;;;;;;4.50;3.27;;;17.10;99.90;;;;;;6194663;23;20158;-83
2021/05/19 07:09:35;;;;;;;4.17;3.20;;;17.00;99.90;;;;;;6169423;23;20161;-82
2021/05/19 07:12:01;;;;;;;7.30;2.90;;;17.40;99.90;;;;;;6170741;23;20565;-83
2021/05/19 07:14:31;;;;;;;3.23;2.63;;;17.70;99.90;;;;;;6195133;23;20373;-83
2021/05/19 07:16:59;;;;;;;2.87;2.60;;;17.80;99.90;;;;;;6167299;23;20428;-83
2021/05/19 07:19:25;;;;;;;2.83;2.57;;;17.90;99.90;;;;;;6194216;23;20368;-83
2021/05/19 07:21:51;;;;;;;6.30;3.03;;;17.90;99.90;;;;;;6166772;23;20437;-83
2021/05/19 07:24:17;;;;;;;3.97;2.77;;;17.50;99.90;;;;;;6168508;23;20165;-83
2021/05/19 07:26:45;;;;;;;3.80;2.80;;;17.40;99.90;;;;;;6195946;23;20412;-82
2021/05/19 07:29:12;;;;;;;3.30;2.90;;;18.00;99.90;;;;;;6167364;23;20612;-83
2021/05/19 07:31:40;;;;;;;4.20;3.17;;;17.30;99.90;;;;;;6168885;23;20432;-83
2021/05/19 07:34:06;;;;;;;5.07;3.13;;;17.10;99.90;;;;;;6197041;23;20373;-83
2021/05/19 07:36:32;;;;;;;3.80;2.70;;;17.60;99.90;;;;;;6195077;23;20408;-84
2021/05/19 07:38:57;;;;;;;6.50;2.97;;;17.70;99.90;;;;;;6168647;23;20480;-82
2021/05/19 07:41:28;;;;;;;3.43;2.90;;;17.80;99.90;;;;;;6170371;23;20182;-85
2021/05/19 07:43:54;;;;;;;3.20;2.57;;;17.60;99.90;;;;;;6198545;23;20126;-83
2021/05/19 07:46:20;;;;;;;5.33;2.57;;;17.80;99.90;;;;;;6196112;23;20378;-83
2021/05/19 07:48:48;;;;;;;4.13;2.97;;;18.00;99.90;;;;;;6195203;23;20390;-84
2021/05/19 07:51:16;;;;;;;3.30;2.60;;;18.10;99.90;;;;;;6196679;23;20386;-84
2021/05/19 07:53:43;;;;;;;4.60;3.90;;;18.00;99.90;;;;;;6197443;23;20384;-83
2021/05/19 07:56:18;;;;;;;3.70;2.60;;;18.40;99.90;;;;;;6197980;23;20421;-83
2021/05/19 07:58:49;;;;;;;2.10;1.83;;;18.10;99.90;;;;;;6196626;23;20359;-83
2021/05/19 08:01:55;;;;;;;2.70;2.10;;;18.30;99.90;;;;;;6194767;23;20785;-83
2021/05/19 08:04:20;;;;;;;3.83;2.83;;;18.30;99.90;;;;;;6193169;23;20416;-81
2021/05/19 08:06:49;;;;;;;3.53;2.63;;;18.40;99.90;;;;;;6166293;23;20397;-84
2021/05/19 08:09:14;;;;;;;3.60;2.70;;;18.00;99.60;;;;;;6192284;23;20375;-83
2021/05/19 08:11:43;;;;;;;3.63;2.70;;;18.00;99.90;;;;;;6165185;23;20462;-81
2021/05/19 08:14:08;;;;;;;6.40;2.83;;;18.00;99.90;;;;;;6163042;23;20163;-82
2021/05/19 08:16:34;;;;;;;3.87;3.03;;;17.60;99.90;;;;;;6162136;23;20420;-83
2021/05/19 08:19:10;;;;;;;3.03;2.23;;;17.70;99.90;;;;;;6188347;23;20485;-84
2021/05/19 08:21:37;;;;;;;2.37;2.17;;;17.50;99.90;;;;;;6199934;23;20179;-83
2021/05/19 08:24:03;;;;;;;4.23;2.70;;;17.50;99.90;;;;;;6196882;23;20378;-83
2021/05/19 08:26:32;;;;;;;3.90;3.20;;;17.50;99.90;;;;;;6164201;23;20445;-84
2021/05/19 08:28:57;;;;;;;5.90;2.63;;;17.70;99.90;;;;;;6163772;23;20704;-83
2021/05/19 08:31:23;;;;;;;12.80;3.27;;;17.40;99.90;;;;;;6190920;23;20393;-82
2021/05/19 08:33:49;;;;;;;6.93;3.00;;;17.30;99.90;;;;;;6192004;23;20150;-84
2021/05/19 08:36:16;;;;;;;3.60;2.00;;;17.30;99.90;;;;;;6163767;23;20179;-84
2021/05/19 08:38:46;;;;;;;4.57;2.80;;;17.40;99.90;;;;;;6191175;23;20361;-83
2021/05/19 08:41:12;;;;;;;3.90;2.80;;;17.50;99.90;;;;;;6162874;23;20404;-83
2021/05/19 08:43:37;;;;;;;3.53;3.07;;;17.40;99.90;;;;;;6189993;23;20374;-83
2021/05/19 08:46:08;;;;;;;9.80;2.30;;;17.40;99.90;;;;;;6164774;23;20166;-83
2021/05/19 08:48:53;;;;;;;2.93;2.13;;;17.60;99.90;;;;;;6163063;23;20213;-83
2021/05/19 08:51:21;;;;;;;5.30;2.90;;;17.30;99.90;;;;;;6188993;23;20747;-83
2021/05/19 08:53:46;;;;;;;3.60;2.70;;;17.70;99.90;;;;;;6163875;23;20896;-83
2021/05/19 08:56:40;;;;;;;3.73;2.50;;;17.70;99.90;;;;;;6162799;23;20515;-82
2021/05/19 08:59:05;;;;;;;3.47;2.57;;;17.40;99.90;;;;;;6161916;23;20145;-83
2021/05/19 09:01:49;;;;;;;2.30;2.10;;;16.90;99.90;;;;;;6163428;23;20397;-84
2021/05/19 09:04:24;;;;;;;4.90;3.27;;;17.10;99.90;;;;;;6187952;23;20426;-82
2021/05/19 09:06:59;;;;;;;8.57;3.53;;;17.40;99.90;;;;;;6187680;23;20398;-82
2021/05/19 09:12:39;;;;;;;4.67;2.97;;;16.80;99.90;;;;;;6180465;23;20427;-83
2021/05/19 09:15:17;;;;;;;5.10;2.93;;;17.00;99.90;;;;;;6169190;23;20384;-83
2021/05/19 09:17:43;;;;;;;3.47;2.23;;;17.30;99.90;;;;;;6171066;23;20498;-83
2021/05/19 09:20:16;;;;;;;4.60;2.80;;;17.70;99.90;;;;;;6165420;23;20398;-84
2021/05/19 09:23:00;;;;;;;2.57;2.37;;;17.80;99.90;;;;;;6190576;23;20169;-83
2021/05/19 09:25:37;;;;;;;4.30;2.90;;;17.60;99.90;;;;;;6164632;23;20905;-82
2021/05/19 09:28:08;;;;;;;4.93;2.50;;;17.60;99.90;;;;;;6189171;23;20457;-84
2021/05/19 09:31:09;;;;;;;3.53;2.30;;;17.50;99.90;;;;;;6190345;23;20357;-84
2021/05/19 09:33:52;;;;;;;2.90;2.60;;;17.70;99.90;;;;;;6189604;23;20380;-82
2021/05/19 09:36:37;;;;;;;5.13;2.40;;;17.60;99.90;;;;;;6191204;23;20410;-84
2021/05/19 09:39:05;;;;;;;5.07;2.10;;;18.10;99.90;;;;;;6190527;23;20434;-84
2021/05/19 09:41:32;;;;;;;3.87;2.63;;;17.80;96.60;;;;;;6190410;23;20399;-82
2021/05/19 09:43:59;;;;;;;3.07;2.77;;;17.90;99.90;;;;;;6188199;23;20372;-81
2021/05/19 09:49:12;;;;;;;3.10;2.67;;;17.80;99.40;;;;;;6197863;23;20364;-87
2021/05/19 09:51:38;;;;;;;3.30;2.20;;;17.80;98.90;;;;;;6193635;23;20895;-82
2021/05/19 09:54:04;;;;;;;4.50;2.03;;;17.70;98.50;;;;;;6191037;23;20425;-85
2021/05/19 09:56:34;;;;;;;3.53;2.20;;;18.10;99.10;;;;;;6192136;23;20419;-84
2021/05/19 09:59:01;;;;;;;3.70;2.80;;;18.30;98.70;;;;;;6164181;23;20383;-82
2021/05/19 10:01:27;;;;;;;3.60;2.77;;;18.30;99.70;;;;;;6162935;23;20426;-83
2021/05/19 10:03:53;;;;;;;3.63;2.33;;;18.50;93.70;;;;;;6162158;23;20389;-83
2021/05/19 10:06:24;;;;;;;4.10;2.50;;;18.50;95.90;;;;;;6163036;23;20380;-83
2021/05/19 10:08:50;;;;;;;2.43;1.90;;;18.60;95.50;;;;;;6163743;23;20153;-82
2021/05/19 10:11:19;;;;;;;2.60;2.07;;;18.60;93.10;;;;;;6164220;23;20409;-82
2021/05/19 10:13:46;;;;;;;2.60;2.03;;;18.20;93.40;;;;;;6189004;23;20709;-82
2021/05/19 10:16:22;;;;;;;2.73;2.50;;;17.80;92.60;;;;;;6190639;23;20450;-82
2021/05/19 10:18:53;;;;;;;3.73;1.90;;;17.90;95.00;;;;;;6190196;23;20718;-83
2021/05/19 10:21:48;;;;;;;2.70;1.80;;;18.10;95.20;;;;;;6163176;23;20572;-82
2021/05/19 10:24:15;;;;;;;2.87;2.20;;;18.40;95.80;;;;;;6193698;23;20416;-83
2021/05/19 10:27:02;;;;;;;8.00;1.80;;;18.20;92.40;;;;;;6199168;23;20376;-84
2021/05/19 10:29:46;;;;;;;3.20;2.23;;;18.10;93.20;;;;;;6197354;23;20383;-84
2021/05/19 10:32:21;;;;;;;5.63;1.77;;;18.30;93.40;;;;;;6197975;23;20404;-85
2021/05/19 10:34:52;;;;;;;3.53;2.30;;;18.10;92.80;;;;;;6197702;23;20380;-83
2021/05/19 10:37:26;;;;;;;6.17;2.50;;;18.30;94.90;;;;;;6174638;23;20429;-86
2021/05/19 10:40:07;;;;;;;4.93;2.70;;;18.70;94.90;;;;;;6199407;23;20372;-83
2021/05/19 10:43:06;;;;;;;3.43;2.07;;;18.90;95.50;;;;;;6198554;23;20408;-82
2021/05/19 10:45:56;;;;;;;2.93;2.00;;;18.90;91.90;;;;;;6181626;23;20451;-85
2021/05/19 10:48:37;;;;;;;2.40;2.07;;;18.90;97.40;;;;;;6166091;23;20390;-86
2021/05/19 10:51:36;;;;;;;7.13;2.40;;;18.80;91.30;;;;;;6168254;23;20750;-83
2021/05/19 11:00:11;;;;;;;2.80;2.10;;;18.60;91.20;;;;;;6190195;23;20410;-83
2021/05/19 11:02:56;;;;;;;4.30;2.97;;;18.60;92.80;;;;;;6188918;23;20797;-84
2021/05/19 11:05:23;;;;;;;2.00;1.50;;;18.80;93.30;;;;;;6190580;23;20360;-85
2021/05/19 11:08:07;;;;;;;2.10;1.60;;;18.70;89.10;;;;;;6187730;23;20385;-83
2021/05/19 11:10:44;;;;;;;2.43;2.23;;;18.80;89.40;;;;;;6185850;23;20380;-83
2021/05/19 11:13:10;;;;;;;2.63;2.07;;;18.00;90.00;;;;;;6188671;23;20386;-82
2021/05/19 11:15:46;;;;;;;2.67;1.97;;;18.20;91.70;;;;;;6164979;23;20562;-82
2021/05/19 11:20:59;;;;;;;4.00;2.07;;;17.10;91.80;;;;;;6199948;23;20390;-82
2021/05/19 11:23:26;;;;;;;2.00;1.80;;;17.30;94.90;;;;;;6167790;23;20418;-83
2021/05/19 11:26:14;;;;;;;1.63;1.37;;;17.30;91.10;;;;;;6165146;23;20452;-82
2021/05/19 11:28:40;;;;;;;9.03;1.83;;;17.50;92.50;;;;;;6166353;23;20437;-84
2021/05/19 11:31:17;;;;;;;2.30;2.03;;;17.60;91.50;;;;;;6166645;23;20416;-86
2021/05/19 11:33:51;;;;;;;6.30;2.50;;;17.60;92.10;;;;;;6167437;23;20394;-83
2021/05/19 11:36:40;;;;;;;2.30;1.80;;;17.80;92.60;;;;;;6166628;23;20515;-82
2021/05/19 11:39:25;;;;;;;2.87;1.97;;;18.00;93.50;;;;;;6164693;23;20389;-84
2021/05/19 11:42:09;;;;;;;2.70;2.17;;;18.20;93.90;;;;;;6193198;23;20398;-84
2021/05/19 11:44:53;;;;;;;2.37;2.17;;;18.40;93.10;;;;;;6166697;23;20378;-82
2021/05/19 11:47:31;;;;;;;2.97;2.00;;;18.60;93.20;;;;;;6167309;23;20406;-82
2021/05/19 11:50:21;;;;;;;2.03;1.50;;;17.80;92.30;;;;;;6189325;23;20419;-82
2021/05/19 11:53:10;;;;;;;2.53;2.23;;;17.80;92.60;;;;;;6190672;23;20391;-82
2021/05/19 11:55:45;;;;;;;2.73;2.30;;;17.60;91.30;;;;;;6191174;23;20462;-85
2021/05/19 11:58:11;;;;;;;2.13;1.93;;;17.70;91.90;;;;;;6164369;23;20418;-82
2021/05/19 12:00:42;;;;;;;2.23;1.70;;;18.10;91.70;;;;;;6187098;23;20384;-82
2021/05/19 12:03:09;;;;;;;2.03;1.83;;;18.50;94.70;;;;;;6187892;23;20391;-86
2021/05/19 12:05:47;;;;;;;2.27;2.00;;;18.60;88.30;;;;;;6160196;23;20387;-83
2021/05/19 12:08:21;;;;;;;3.10;2.00;;;18.40;91.80;;;;;;6189315;23;20813;-82
2021/05/19 12:11:00;;;;;;;1.97;1.47;;;18.60;91.40;;;;;;6190492;23;20384;-83
2021/05/19 12:13:27;;;;;;;2.43;2.23;;;18.40;91.70;;;;;;6166765;23;20405;-83
2021/05/19 12:15:53;;;;;;;3.10;2.23;;;18.60;87.20;;;;;;6194824;23;20426;-82
2021/05/19 12:18:19;;;;;;;2.80;2.00;;;18.40;88.40;;;;;;6191650;23;20404;-83
2021/05/19 12:22:20;;;;;;;2.50;1.60;;;17.90;82.60;;;;;;6166472;23;20239;-86
2021/05/19 12:24:27;;;;;;;2.17;1.70;;;17.50;82.30;;;;;;6151285;23;20386;-82
2021/05/19 12:26:54;;;;;;;1.83;1.60;;;17.20;80.80;;;;;;6190272;23;20766;-82
2021/05/19 12:29:46;;;;;;;2.10;1.40;;;16.90;82.30;;;;;;6194123;23;20381;-81
2021/05/19 12:32:19;;;;;;;4.23;1.97;;;17.10;83.00;;;;;;6193620;23;20451;-83
2021/05/19 12:35:07;;;;;;;2.43;2.00;;;16.80;84.60;;;;;;6190590;23;20451;-82
2021/05/19 12:37:42;;;;;;;3.43;1.40;;;16.90;84.70;;;;;;6158882;23;20424;-84
2021/05/19 12:40:13;;;;;;;1.73;1.57;;;16.90;84.50;;;;;;6197493;23;20384;-80
2021/05/19 12:42:47;;;;;;;2.23;1.77;;;16.80;84.40;;;;;;6176594;23;20415;-82
2021/05/19 12:45:14;;;;;;;2.30;2.10;;;16.90;85.70;;;;;;6201241;23;20363;-81
2021/05/19 12:47:40;;;;;;;2.10;1.83;;;17.10;83.60;;;;;;6196608;23;20437;-83
2021/05/19 12:50:08;;;;;;;2.33;1.57;;;17.40;85.00;;;;;;6144068;23;20392;-83
2021/05/19 12:52:35;;;;;;;3.57;1.70;;;17.40;82.40;;;;;;6195076;23;20909;-82
2021/05/19 12:55:07;;;;;;;4.43;1.93;;;17.60;82.20;;;;;;6191639;23;20440;-83
2021/05/19 12:57:36;;;;;;;2.50;2.10;;;17.70;81.70;;;;;;6192908;23;20484;-83
2021/05/19 13:00:14;;;;;;;1.43;1.23;;;17.80;81.90;;;;;;6164344;23;20384;-83
2021/05/19 13:02:40;;;;;;;1.63;1.47;;;17.90;81.20;;;;;;6191513;23;20881;-82
2021/05/19 13:05:07;;;;;;;1.87;1.60;;;18.00;83.10;;;;;;6189964;23;20394;-84
2021/05/19 13:07:33;;;;;;;2.00;1.73;;;18.00;80.00;;;;;;6164984;23;20250;-82
2021/05/19 13:10:32;;;;;;;1.97;1.40;;;17.70;81.90;;;;;;6189434;23;20379;-82
2021/05/19 13:13:06;;;;;;;4.10;1.80;;;17.70;79.30;;;;;;6190990;23;20358;-82
2021/05/19 13:18:38;;;;;;;1.60;1.50;;;17.60;79.10;;;;;;6193543;23;20481;-83
2021/05/19 13:21:08;;;;;;;2.93;1.80;;;17.70;78.60;;;;;;6171570;23;20403;-84